createdAt,value
2022-12-27T00:10:21.456Z,0.42
2022-12-27T00:22:21.945Z,0.47
2022-12-27T00:34:22.373Z,0.67
2022-12-27T00:46:22.855Z,0.42
2022-12-27T00:58:23.296Z,0.59
2022-12-27T01:10:23.758Z,0.53
2022-12-27T01:22:24.202Z,0.14
2022-12-27T01:34:24.632Z,0.22
2022-12-27T01:46:25.095Z,0.17
2022-12-27T01:58:25.586Z,0.08
2022-12-27T02:10:26.005Z,0.11
2022-12-27T02:22:26.472Z,0.21
2022-12-27T02:34:26.916Z,0.40
2022-12-27T02:46:27.392Z,0.59
2022-12-27T02:58:27.826Z,1.03
2022-12-27T03:10:28.279Z,0.70
2022-12-27T03:22:28.721Z,0.76
2022-12-27T03:34:29.206Z,0.14
2022-12-27T03:46:29.666Z,0.67
2022-12-27T03:58:30.063Z,0.30
2022-12-27T04:10:30.524Z,0.76
2022-12-27T04:22:31.026Z,0.41
2022-12-27T04:34:31.420Z,0.01
2022-12-27T04:46:31.929Z,0.00
2022-12-27T04:58:32.337Z,0.09
2022-12-27T05:10:32.794Z,0.99
2022-12-27T05:22:33.250Z,0.21
2022-12-27T05:34:33.666Z,0.15
2022-12-27T05:46:34.155Z,0.66
2022-12-27T05:58:34.628Z,0.11
2022-12-27T06:10:35.055Z,0.20
2022-12-27T06:22:35.519Z,0.02
2022-12-27T06:34:35.940Z,0.08
2022-12-27T06:46:36.456Z,0.35
2022-12-27T06:58:36.821Z,0.72
2022-12-27T07:10:37.329Z,0.37
2022-12-27T07:22:37.777Z,0.63
2022-12-27T07:34:38.244Z,0.97
2022-12-27T07:46:38.673Z,0.70
2022-12-27T07:58:39.137Z,1.00
2022-12-27T08:10:39.584Z,1.50
2022-12-27T08:22:40.065Z,1.63
2022-12-27T08:34:40.532Z,1.68
2022-12-27T08:46:40.975Z,1.65
2022-12-27T08:58:41.395Z,4.44
2022-12-27T09:10:41.845Z,4.75
2022-12-27T09:22:42.292Z,4.76
2022-12-27T09:34:42.750Z,1.62
2022-12-27T09:46:43.274Z,2.06
2022-12-27T09:58:43.703Z,2.71
2022-12-27T10:10:44.107Z,4.20
2022-12-27T10:22:44.554Z,3.14
2022-12-27T10:34:44.984Z,4.07
2022-12-27T10:46:45.605Z,5.06
2022-12-27T10:58:45.940Z,4.08
2022-12-27T11:10:46.353Z,2.69
2022-12-27T11:22:46.843Z,3.72
2022-12-27T11:34:47.314Z,4.91
2022-12-27T11:46:47.814Z,5.82
2022-12-27T11:58:48.191Z,4.94
2022-12-27T12:10:48.658Z,4.79
2022-12-27T12:22:49.097Z,4.04
2022-12-27T12:34:49.540Z,3.76
2022-12-27T12:46:49.997Z,3.95
2022-12-27T12:58:50.487Z,2.76
2022-12-27T13:10:50.967Z,4.38
2022-12-27T13:22:51.360Z,2.07
2022-12-27T13:34:51.813Z,1.81
2022-12-27T13:46:52.286Z,0.40
2022-12-27T13:58:57.742Z,1.51
2022-12-27T14:11:00.471Z,3.23
2022-12-27T14:22:54.436Z,1.05
2022-12-27T14:34:59.055Z,0.27
2022-12-27T14:46:54.620Z,0.57
2022-12-27T14:58:55.012Z,0.38
2022-12-27T15:10:55.419Z,0.38
2022-12-27T15:22:55.904Z,0.16
2022-12-27T15:34:56.553Z,0.54
2022-12-27T15:46:56.830Z,1.27
2022-12-27T15:58:57.228Z,0.38
2022-12-27T16:10:57.695Z,0.68
2022-12-27T16:22:58.208Z,0.69
2022-12-27T16:28:58.194Z,0.31
2022-12-27T16:34:58.192Z,0.02
2022-12-27T16:46:58.631Z,0.23
2022-12-27T16:52:58.566Z,0.86
2022-12-27T16:58:58.599Z,1.29
2022-12-27T17:10:59.033Z,0.89
2022-12-27T17:22:59.522Z,0.71
2022-12-27T17:28:59.459Z,0.49
2022-12-27T17:34:59.503Z,0.19
2022-12-27T17:46:59.996Z,0.59
2022-12-27T17:52:59.953Z,0.32
2022-12-27T17:59:00.019Z,0.47
2022-12-27T18:11:00.415Z,0.00
2022-12-27T18:17:00.411Z,1.84
2022-12-27T18:23:00.440Z,1.28
2022-12-27T18:29:00.384Z,0.48
2022-12-27T18:35:07.358Z,0.20
2022-12-27T18:41:07.363Z,0.56
2022-12-27T18:47:07.380Z,0.42
2022-12-27T18:53:07.375Z,0.69
2022-12-27T18:59:07.391Z,0.71
2022-12-27T19:11:11.000Z,0.14
2022-12-27T19:17:11.547Z,0.04
2022-12-27T19:23:11.019Z,0.00
2022-12-27T19:29:10.983Z,0.01
2022-12-27T19:35:18.304Z,0.30
2022-12-27T19:41:18.427Z,0.23
2022-12-27T19:47:18.418Z,0.22
2022-12-27T19:53:18.457Z,0.36
2022-12-27T19:59:18.463Z,0.62
2022-12-27T20:05:18.651Z,0.23
2022-12-27T20:11:18.468Z,0.18
2022-12-27T20:23:18.912Z,0.74
2022-12-27T20:35:19.391Z,0.66
2022-12-27T20:41:19.428Z,0.42
2022-12-27T20:47:19.398Z,0.24
2022-12-27T20:59:19.869Z,0.64
2022-12-27T21:11:20.313Z,0.87
2022-12-27T21:23:20.774Z,3.27
2022-12-27T21:35:21.192Z,2.90
2022-12-27T21:47:21.599Z,2.45
2022-12-27T21:59:22.113Z,2.97
2022-12-27T22:11:22.559Z,2.78
2022-12-27T22:23:23.049Z,2.32
